createdAt,value
2023-01-23T00:02:09.271Z,10.97
2023-01-23T00:07:12.674Z,8.50
2023-01-23T00:12:17.346Z,9.10
2023-01-23T00:17:20.755Z,9.20
2023-01-23T00:22:24.141Z,9.17
2023-01-23T00:27:29.000Z,8.33
2023-01-23T00:32:32.327Z,8.47
2023-01-23T00:37:38.509Z,9.00
2023-01-23T00:42:43.297Z,7.80
2023-01-23T00:47:46.662Z,8.53
2023-01-23T00:52:49.972Z,9.07
2023-01-23T00:57:55.227Z,9.07
2023-01-23T01:02:58.963Z,9.03
2023-01-23T01:08:02.417Z,8.23
2023-01-23T01:13:07.221Z,8.20
2023-01-23T01:18:10.583Z,9.13
2023-01-23T01:23:14.412Z,8.07
2023-01-23T01:28:19.268Z,10.93
2023-01-23T01:33:25.842Z,9.13
2023-01-23T01:38:29.876Z,11.37
2023-01-23T01:43:36.340Z,13.03
2023-01-23T01:48:45.499Z,11.40
2023-01-23T01:53:55.713Z,12.67
2023-01-23T01:59:01.587Z,9.90
2023-01-23T02:04:06.228Z,8.93
2023-01-23T02:09:16.998Z,11.27
2023-01-23T02:14:24.545Z,10.73
2023-01-23T02:19:39.898Z,12.60
2023-01-23T02:24:49.956Z,11.97
2023-01-23T02:29:57.466Z,12.50
2023-01-23T02:35:12.457Z,11.03
2023-01-23T02:40:17.478Z,13.17
2023-01-23T02:45:22.768Z,14.83
2023-01-23T02:50:26.948Z,12.93
2023-01-23T02:55:31.730Z,13.40
2023-01-23T03:00:36.832Z,13.43
2023-01-23T03:05:40.349Z,11.53
2023-01-23T03:10:44.211Z,12.57
2023-01-23T03:15:53.123Z,14.47
2023-01-23T03:20:56.587Z,12.40
2023-01-23T03:26:00.348Z,12.63
2023-01-23T03:31:08.401Z,13.03
2023-01-23T03:36:13.114Z,10.93
2023-01-23T03:41:28.990Z,13.20
2023-01-23T03:46:39.811Z,11.90
2023-01-23T03:51:43.595Z,11.03
2023-01-23T03:56:47.725Z,11.30
2023-01-23T04:02:13.251Z,11.37
2023-01-23T04:07:16.770Z,9.00
2023-01-23T04:12:21.732Z,12.00
2023-01-23T04:17:27.227Z,12.30
2023-01-23T04:22:30.624Z,12.30
2023-01-23T04:27:34.566Z,13.97
2023-01-23T04:32:40.285Z,13.77
2023-01-23T04:37:44.734Z,14.57
2023-01-23T04:42:48.341Z,10.10
2023-01-23T04:48:12.727Z,12.17
2023-01-23T04:53:16.434Z,12.80
2023-01-23T04:58:21.412Z,11.90
2023-01-23T05:03:26.712Z,12.67
2023-01-23T05:08:30.236Z,10.37
2023-01-23T05:13:55.231Z,12.50
2023-01-23T05:19:01.592Z,11.10
2023-01-23T05:24:07.791Z,15.33
2023-01-23T05:29:11.538Z,9.73
2023-01-23T05:34:26.272Z,11.47
2023-01-23T05:39:32.590Z,12.70
2023-01-23T05:44:37.007Z,12.37
2023-01-23T05:49:47.062Z,10.67
2023-01-23T05:54:50.566Z,8.40
2023-01-23T05:59:54.740Z,9.17
2023-01-23T06:05:19.656Z,6.73
2023-01-23T06:10:39.938Z,6.67
2023-01-23T06:15:43.721Z,7.27
2023-01-23T06:20:50.084Z,8.90
2023-01-23T06:25:54.188Z,7.80
2023-01-23T06:31:02.384Z,7.20
2023-01-23T06:36:16.159Z,8.47
2023-01-23T06:41:20.098Z,6.57
2023-01-23T06:46:29.631Z,8.80
2023-01-23T06:51:35.744Z,8.80
2023-01-23T06:56:40.111Z,8.83
2023-01-23T07:01:45.966Z,7.97
2023-01-23T07:06:56.304Z,10.63
2023-01-23T07:12:01.165Z,9.07
2023-01-23T07:17:06.824Z,6.13
2023-01-23T07:22:14.035Z,10.20
2023-01-23T07:27:17.663Z,7.70
2023-01-23T07:32:21.030Z,7.83
2023-01-23T07:37:26.328Z,7.70
2023-01-23T07:42:29.947Z,9.37
2023-01-23T07:47:58.997Z,8.27
2023-01-23T07:53:04.340Z,7.80
2023-01-23T07:58:07.777Z,6.23
2023-01-23T08:03:11.231Z,7.27
2023-01-23T08:08:16.053Z,9.30
2023-01-23T08:13:19.443Z,8.73
2023-01-23T08:18:22.966Z,7.13
2023-01-23T08:23:28.847Z,7.40
2023-01-23T08:28:32.577Z,9.67
2023-01-23T08:33:36.776Z,7.57
2023-01-23T08:38:43.222Z,6.93
2023-01-23T08:43:46.838Z,9.40
2023-01-23T08:48:50.252Z,10.23
2023-01-23T08:53:55.199Z,9.00
2023-01-23T08:58:59.163Z,7.33
2023-01-23T09:04:02.538Z,9.97
2023-01-23T09:09:07.591Z,10.83
2023-01-23T09:14:11.414Z,8.33
2023-01-23T09:19:15.931Z,9.30
2023-01-23T09:24:20.804Z,9.90
2023-01-23T09:29:24.572Z,9.10
2023-01-23T09:34:28.341Z,9.67
2023-01-23T09:39:33.211Z,10.80
2023-01-23T09:44:40.975Z,8.33
2023-01-23T09:49:51.078Z,7.00
2023-01-23T09:55:02.734Z,6.20
2023-01-23T10:00:12.232Z,6.60
2023-01-23T10:05:17.003Z,7.80
2023-01-23T10:11:03.066Z,6.47
2023-01-23T10:16:19.930Z,4.90
2023-01-23T10:21:29.899Z,6.17
2023-01-23T10:26:39.879Z,6.23
2023-01-23T10:31:47.426Z,7.80
2023-01-23T10:37:06.828Z,5.37
2023-01-23T10:42:13.671Z,7.73
2023-01-23T10:47:22.578Z,6.13
2023-01-23T10:52:33.028Z,6.90
2023-01-23T10:57:48.560Z,6.40
2023-01-23T11:02:52.499Z,8.30
2023-01-23T11:07:56.635Z,7.20
2023-01-23T11:13:03.697Z,7.90
2023-01-23T11:18:31.352Z,6.40
2023-01-23T11:23:35.711Z,7.13
2023-01-23T11:28:51.603Z,7.67
2023-01-23T11:34:00.216Z,8.23
2023-01-23T11:39:13.413Z,7.03
2023-01-23T11:44:21.130Z,7.90
2023-01-23T11:49:39.661Z,6.00
2023-01-23T11:55:04.356Z,7.63
2023-01-23T12:00:30.467Z,6.77
2023-01-23T12:06:20.269Z,5.63
2023-01-23T12:11:25.679Z,6.43
2023-01-23T12:16:48.434Z,7.43
2023-01-23T12:22:01.477Z,6.33
2023-01-23T12:27:13.541Z,5.83
2023-01-23T12:32:37.110Z,6.20
2023-01-23T12:38:00.694Z,7.60
2023-01-23T12:43:11.574Z,5.63
2023-01-23T12:48:21.106Z,7.03
2023-01-23T12:53:24.934Z,5.73
2023-01-23T12:58:31.359Z,5.30
2023-01-23T13:03:55.548Z,4.93
2023-01-23T13:09:17.423Z,7.33
2023-01-23T13:14:32.773Z,6.40
2023-01-23T13:20:01.167Z,6.17
2023-01-23T13:25:13.236Z,5.77
2023-01-23T13:30:41.093Z,6.90
2023-01-23T13:35:56.214Z,7.03
2023-01-23T13:41:31.365Z,6.10
2023-01-23T14:25:18.981Z,6.67
2023-01-23T14:30:27.253Z,6.43
2023-01-23T14:35:33.153Z,6.53
2023-01-23T14:40:50.722Z,7.37
2023-01-23T14:46:01.989Z,4.50
2023-01-23T14:51:20.288Z,5.87
2023-01-23T14:56:28.915Z,6.63
2023-01-23T15:01:35.362Z,7.90
2023-01-23T15:06:39.512Z,6.70
2023-01-23T15:11:45.262Z,7.37
2023-01-23T15:16:49.082Z,5.60
2023-01-23T15:22:05.531Z,6.13
2023-01-23T15:27:25.593Z,6.50
2023-01-23T15:32:29.160Z,4.90
2023-01-23T15:37:33.212Z,5.57
2023-01-23T15:42:38.189Z,5.93
2023-01-23T15:47:41.626Z,6.70
2023-01-23T15:52:49.946Z,5.23
2023-01-23T15:57:55.210Z,6.90
2023-01-23T16:03:00.561Z,5.20
2023-01-23T16:08:05.838Z,6.73
2023-01-23T16:13:14.815Z,6.07
2023-01-23T16:18:18.904Z,5.07
2023-01-23T16:23:24.867Z,4.57
2023-01-23T16:28:30.783Z,5.37
2023-01-23T16:33:34.301Z,7.20
2023-01-23T16:38:37.931Z,7.43
2023-01-23T16:43:43.718Z,6.00
2023-01-23T16:48:50.633Z,6.07
2023-01-23T16:53:56.805Z,6.23
2023-01-23T16:59:03.160Z,5.10
2023-01-23T17:04:07.335Z,5.30
2023-01-23T17:09:13.302Z,6.37
2023-01-23T17:14:22.116Z,6.10
2023-01-23T17:19:32.743Z,6.73
2023-01-23T17:24:37.369Z,6.70
2023-01-23T17:29:42.682Z,6.13
2023-01-23T17:34:50.091Z,6.47
2023-01-23T17:39:55.944Z,6.17
2023-01-23T17:45:01.955Z,5.47
2023-01-23T17:50:09.015Z,5.70
2023-01-23T17:55:16.794Z,6.90
2023-01-23T18:00:24.339Z,6.37
2023-01-23T18:05:29.656Z,6.93
2023-01-23T18:10:36.176Z,7.80
2023-01-23T18:16:00.945Z,6.63
2023-01-23T18:21:08.417Z,7.13
2023-01-23T18:26:27.307Z,8.10
2023-01-23T18:31:41.947Z,7.23
2023-01-23T18:36:58.343Z,7.33
2023-01-23T18:42:17.131Z,6.63
2023-01-23T18:47:26.247Z,8.13
2023-01-23T18:52:45.906Z,7.73
2023-01-23T18:58:06.971Z,7.50
2023-01-23T19:03:17.391Z,7.57
2023-01-23T19:08:32.972Z,8.33
2023-01-23T19:13:47.141Z,7.70
2023-01-23T19:19:14.686Z,9.67
2023-01-23T19:24:21.985Z,8.53
2023-01-23T19:29:28.069Z,9.27
2023-01-23T19:34:38.864Z,8.90
2023-01-23T19:39:45.957Z,7.10
2023-01-23T19:44:51.118Z,8.80
2023-01-23T19:49:57.963Z,7.27
2023-01-23T19:55:03.406Z,7.13
2023-01-23T20:00:10.420Z,7.67
2023-01-23T20:05:19.334Z,7.17
2023-01-23T20:10:25.151Z,7.27
2023-01-23T20:15:31.921Z,8.50
2023-01-23T20:20:38.975Z,8.33
2023-01-23T20:25:44.047Z,9.43
2023-01-23T20:30:48.705Z,8.13
2023-01-23T20:35:58.235Z,8.47
2023-01-23T20:41:08.997Z,8.57
2023-01-23T20:46:14.764Z,7.63
2023-01-23T20:51:21.192Z,7.80
2023-01-23T20:56:29.470Z,7.40
2023-01-23T21:01:56.736Z,8.40
2023-01-23T21:07:04.050Z,7.83
2023-01-23T21:12:09.949Z,8.57
2023-01-23T21:17:16.160Z,9.40
2023-01-23T21:22:21.300Z,8.27
2023-01-23T21:27:32.502Z,8.63
2023-01-23T21:32:36.273Z,7.97
2023-01-23T21:37:45.170Z,8.80
2023-01-23T21:42:48.980Z,7.10
2023-01-23T21:47:52.451Z,8.43
2023-01-23T21:52:57.400Z,7.33
2023-01-23T21:58:01.203Z,7.03
2023-01-23T22:03:05.047Z,7.77
2023-01-23T22:08:10.058Z,6.90
2023-01-23T22:13:13.508Z,5.90
2023-01-23T22:18:16.938Z,7.00
2023-01-23T22:23:21.996Z,7.47
2023-01-23T22:28:25.611Z,7.00
2023-01-23T22:33:39.942Z,6.23
2023-01-23T22:38:45.663Z,8.57
2023-01-23T22:43:54.633Z,8.00
2023-01-23T22:48:58.408Z,7.67
2023-01-23T22:54:06.032Z,5.87
2023-01-23T22:59:10.189Z,7.17
2023-01-23T23:04:13.733Z,6.53
2023-01-23T23:09:18.540Z,8.60
2023-01-23T23:14:22.992Z,7.93
2023-01-23T23:19:26.499Z,7.90
2023-01-23T23:24:31.302Z,10.07
2023-01-23T23:29:34.761Z,5.73
2023-01-23T23:34:38.320Z,6.90
2023-01-23T23:39:43.201Z,8.10
2023-01-23T23:44:46.715Z,6.90
2023-01-23T23:49:50.317Z,8.00
2023-01-23T23:54:55.069Z,6.40
2023-01-23T23:59:58.502Z,6.33
